createdAt,value
2023-05-09T00:00:15.147Z,100593.38
2023-05-09T00:01:19.982Z,100611.09
2023-05-09T00:02:23.958Z,100605.88
2023-05-09T00:03:28.167Z,100617.78
2023-05-09T00:04:33.017Z,100609.13
2023-05-09T00:05:36.967Z,100612.34
2023-05-09T00:06:39.808Z,100620.69
2023-05-09T00:07:45.224Z,100621.78
2023-05-09T00:08:48.273Z,100625.16
2023-05-09T00:09:52.190Z,100625.16
2023-05-09T00:10:55.349Z,100624.03
2023-05-09T00:11:59.202Z,100621.34
2023-05-09T00:13:02.104Z,100609.88
2023-05-09T00:14:06.944Z,100617.56
2023-05-09T00:15:10.999Z,100622.47
2023-05-09T00:16:16.319Z,100622.47
2023-05-09T00:17:19.772Z,100617.91
2023-05-09T00:18:23.875Z,100620.34
2023-05-09T00:19:26.888Z,100622.03
2023-05-09T00:20:32.443Z,100623.47
2023-05-09T00:21:35.760Z,100629.38
2023-05-09T00:22:40.037Z,100622.47
2023-05-09T00:23:44.495Z,100623.16
2023-05-09T00:24:48.585Z,100624.00
2023-05-09T00:25:51.607Z,100612.91
2023-05-09T00:26:56.109Z,100624.91
2023-05-09T00:27:58.933Z,100629.25
2023-05-09T00:29:02.893Z,100628.38
2023-05-09T00:30:07.144Z,100624.16
2023-05-09T00:31:11.595Z,100625.91
2023-05-09T00:32:14.998Z,100625.13
2023-05-09T00:33:18.919Z,100619.25
2023-05-09T00:34:21.830Z,100632.06
2023-05-09T00:35:26.213Z,100626.03
2023-05-09T00:36:29.787Z,100623.56
2023-05-09T00:37:33.775Z,100626.03
2023-05-09T00:38:36.540Z,100626.94
2023-05-09T00:39:41.914Z,100631.16
2023-05-09T00:40:44.668Z,100624.38
2023-05-09T00:41:48.657Z,100623.47
2023-05-09T00:42:51.733Z,100626.13
2023-05-09T00:43:55.623Z,100625.38
2023-05-09T00:44:58.670Z,100632.28
2023-05-09T00:46:03.502Z,100628.94
2023-05-09T00:47:07.029Z,100634.03
2023-05-09T00:48:10.942Z,100632.38
2023-05-09T00:49:14.043Z,100629.81
2023-05-09T00:50:18.295Z,100631.47
2023-05-09T00:51:23.419Z,100632.38
2023-05-09T00:52:26.994Z,100630.59
2023-05-09T00:53:30.924Z,100632.28
2023-05-09T00:54:33.514Z,100632.28
2023-05-09T00:55:42.107Z,100629.72
2023-05-09T00:56:45.598Z,100625.91
2023-05-09T00:57:51.075Z,100630.50
2023-05-09T00:58:55.779Z,100635.84
2023-05-09T00:59:59.610Z,100631.63
2023-05-09T01:01:04.062Z,100635.16
2023-05-09T01:02:08.498Z,100629.16
2023-05-09T01:03:11.656Z,100637.97
2023-05-09T01:04:16.514Z,100630.16
2023-05-09T01:05:20.359Z,100637.28
2023-05-09T01:06:34.663Z,100636.53
2023-05-09T01:07:45.237Z,100629.59
2023-05-09T01:08:56.758Z,100640.19
2023-05-09T01:10:09.487Z,100624.72
2023-05-09T01:11:21.761Z,100633.38
2023-05-09T01:12:37.148Z,100634.50
2023-05-09T01:13:50.556Z,100641.41
2023-05-09T01:15:02.780Z,100638.16
2023-05-09T01:16:11.526Z,100640.72
2023-05-09T01:17:26.607Z,100639.06
2023-05-09T01:18:39.175Z,100640.88
2023-05-09T01:19:58.719Z,100640.97
2023-05-09T01:21:09.038Z,100647.44
2023-05-09T01:22:16.530Z,100643.75
2023-05-09T01:23:42.537Z,100648.00
2023-05-09T01:25:06.991Z,100649.53
2023-05-09T01:26:21.979Z,100651.91
2023-05-09T01:27:37.898Z,100655.31
2023-05-09T01:29:00.584Z,100650.09
2023-05-09T01:30:07.274Z,100648.22
2023-05-09T01:31:12.132Z,100649.88
2023-05-09T01:32:20.183Z,100638.03
2023-05-09T01:33:26.563Z,100652.88
2023-05-09T01:34:31.072Z,100653.78
2023-05-09T01:35:37.567Z,100653.88
2023-05-09T01:36:42.718Z,100660.13
2023-05-09T01:37:52.124Z,100654.22
2023-05-09T01:38:57.509Z,100657.03
2023-05-09T01:40:08.539Z,100660.59
2023-05-09T01:41:15.791Z,100659.91
2023-05-09T01:42:21.786Z,100659.13
2023-05-09T01:43:28.316Z,100661.91
2023-05-09T01:44:37.016Z,100657.91
2023-05-09T01:45:43.543Z,100661.47
2023-05-09T01:46:49.297Z,100654.00
2023-05-09T01:47:53.418Z,100661.16
2023-05-09T01:48:59.255Z,100657.91
2023-05-09T01:50:03.681Z,100659.81
2023-05-09T01:51:09.014Z,100662.59
2023-05-09T01:52:15.591Z,100666.16
2023-05-09T01:53:19.847Z,100664.72
2023-05-09T01:54:26.561Z,100659.56
2023-05-09T01:55:34.367Z,100654.78
2023-05-09T01:56:38.674Z,100656.56
2023-05-09T01:57:44.714Z,100659.56
2023-05-09T01:58:50.603Z,100657.19
2023-05-09T01:59:56.856Z,100662.56
2023-05-09T02:01:03.767Z,100659.44
2023-05-09T02:02:09.257Z,100664.13
2023-05-09T02:03:12.531Z,100661.78
2023-05-09T02:04:19.573Z,100660.19
2023-05-09T02:05:26.461Z,100667.44
2023-05-09T02:06:31.407Z,100667.66
2023-05-09T02:07:35.664Z,100667.88
2023-05-09T02:08:39.799Z,100662.97
2023-05-09T02:09:42.777Z,100666.63
2023-05-09T02:10:47.943Z,100665.16
2023-05-09T02:11:51.191Z,100669.75
2023-05-09T02:12:55.778Z,100662.34
2023-05-09T02:13:59.049Z,100670.50
2023-05-09T02:15:03.080Z,100653.88
2023-05-09T02:16:12.340Z,100664.31
2023-05-09T02:17:17.259Z,100667.84
2023-05-09T02:18:20.339Z,100671.66
2023-05-09T02:19:24.201Z,100667.50
2023-05-09T02:20:27.204Z,100664.34
2023-05-09T02:21:31.145Z,100666.34
2023-05-09T02:22:34.104Z,100673.38
2023-05-09T02:23:38.129Z,100666.22
2023-05-09T02:24:43.342Z,100668.34
2023-05-09T02:25:48.447Z,100670.44
2023-05-09T02:26:51.486Z,100669.66
2023-05-09T02:27:58.413Z,100679.16
2023-05-09T02:29:04.312Z,100672.53
2023-05-09T02:30:12.974Z,100668.28
2023-05-09T02:31:21.003Z,100669.47
2023-05-09T02:32:29.155Z,100670.97
2023-05-09T02:33:34.871Z,100667.81
2023-05-09T02:34:40.605Z,100665.94
2023-05-09T02:35:46.036Z,100670.63
2023-05-09T02:36:50.305Z,100667.59
2023-05-09T02:37:53.645Z,100672.72
2023-05-09T02:38:58.034Z,100674.59
2023-05-09T02:40:01.585Z,100667.09
2023-05-09T02:41:07.751Z,100677.00
2023-05-09T02:42:12.480Z,100682.25
2023-05-09T02:43:16.526Z,100672.06
2023-05-09T02:44:19.471Z,100675.75
2023-05-09T02:45:24.141Z,100676.84
2023-05-09T02:46:28.470Z,100682.19
2023-05-09T02:47:32.420Z,100683.94
2023-05-09T02:48:36.731Z,100675.66
2023-05-09T02:49:40.604Z,100682.56
2023-05-09T02:50:43.752Z,100681.00
2023-05-09T02:51:47.751Z,100687.34
2023-05-09T02:52:50.637Z,100684.28
2023-05-09T02:53:54.959Z,100673.69
2023-05-09T02:54:57.823Z,100688.63
2023-05-09T02:56:01.857Z,100686.94
2023-05-09T02:57:04.965Z,100689.72
2023-05-09T02:58:14.250Z,100689.16
2023-05-09T02:59:19.913Z,100691.81
2023-05-09T03:00:25.977Z,100697.16
2023-05-09T03:01:30.501Z,100690.63
2023-05-09T03:02:34.445Z,100692.63
2023-05-09T03:03:38.290Z,100695.19
2023-05-09T03:04:42.676Z,100700.44
2023-05-09T03:05:45.861Z,100697.06
2023-05-09T03:06:49.780Z,100697.28
2023-05-09T03:07:53.008Z,100688.75
2023-05-09T03:08:57.018Z,100687.00
2023-05-09T03:10:01.428Z,100697.84
2023-05-09T03:11:07.798Z,100683.31
2023-05-09T03:12:11.131Z,100686.88
2023-05-09T03:13:15.249Z,100697.47
2023-05-09T03:14:18.687Z,100689.75
2023-05-09T03:15:23.325Z,100695.69
2023-05-09T03:16:26.378Z,100687.28
2023-05-09T03:17:31.841Z,100692.03
2023-05-09T03:18:35.354Z,100688.38
2023-05-09T03:19:39.174Z,100691.03
2023-05-09T03:20:42.098Z,100695.66
2023-05-09T03:21:46.152Z,100695.50
2023-05-09T03:22:49.277Z,100689.84
2023-05-09T03:23:53.154Z,100698.34
2023-05-09T03:24:56.005Z,100692.50
2023-05-09T03:26:00.114Z,100702.78
2023-05-09T03:27:02.979Z,100699.00
2023-05-09T03:28:07.198Z,100695.25
2023-05-09T03:29:10.176Z,100686.56
2023-05-09T03:30:16.630Z,100703.47
2023-05-09T03:31:22.019Z,100694.44
2023-05-09T03:32:26.728Z,100694.94
2023-05-09T03:33:31.529Z,100689.38
2023-05-09T03:34:37.593Z,100689.25
2023-05-09T03:35:41.386Z,100689.25
2023-05-09T03:36:46.003Z,100690.91
2023-05-09T03:37:50.847Z,100696.94
2023-05-09T03:38:55.335Z,100699.66
2023-05-09T03:39:59.149Z,100691.78
2023-05-09T03:41:04.677Z,100699.13
2023-05-09T03:42:08.623Z,100700.22
2023-05-09T03:43:12.625Z,100694.84
2023-05-09T03:44:15.577Z,100700.28
2023-05-09T03:45:19.461Z,100694.63
2023-05-09T03:46:23.241Z,100691.34
2023-05-09T03:47:27.379Z,100697.28
2023-05-09T03:48:31.622Z,100694.09
2023-05-09T03:49:36.470Z,100693.72
2023-05-09T03:50:39.693Z,100703.41
2023-05-09T03:51:44.054Z,100693.22
2023-05-09T03:52:51.565Z,100696.31
2023-05-09T03:53:55.561Z,100691.53
2023-05-09T03:54:59.214Z,100696.06
2023-05-09T03:56:03.228Z,100700.50
2023-05-09T03:57:09.600Z,100702.66
2023-05-09T03:58:13.922Z,100709.31
2023-05-09T03:59:18.742Z,100708.69
2023-05-09T04:00:23.935Z,100700.28
2023-05-09T04:01:38.251Z,100703.13
2023-05-09T04:02:45.069Z,100714.13
2023-05-09T04:03:58.758Z,100713.50
2023-05-09T04:05:04.158Z,100702.66
2023-05-09T04:06:07.579Z,100709.00
2023-05-09T04:07:15.163Z,100702.53
2023-05-09T04:08:18.026Z,100703.78
2023-05-09T04:09:22.495Z,100719.25
2023-05-09T04:10:25.750Z,100706.53
2023-05-09T04:11:30.832Z,100706.13
2023-05-09T04:12:35.123Z,100709.97
2023-05-09T04:13:39.157Z,100705.59
2023-05-09T04:14:52.072Z,100710.22
2023-05-09T04:15:56.318Z,100707.72
2023-05-09T04:17:00.744Z,100705.31
2023-05-09T04:18:03.986Z,100703.09
2023-05-09T04:19:10.411Z,100711.09
2023-05-09T04:20:14.389Z,100714.56
2023-05-09T04:21:19.743Z,100718.50
2023-05-09T04:22:25.429Z,100717.25
2023-05-09T04:23:29.327Z,100712.28
2023-05-09T04:24:34.578Z,100718.59
2023-05-09T04:25:38.878Z,100710.41
2023-05-09T04:26:42.171Z,100709.69
2023-05-09T04:27:49.291Z,100705.75
2023-05-09T04:28:53.250Z,100715.28
2023-05-09T04:29:57.561Z,100711.63
2023-05-09T04:31:00.637Z,100707.19
2023-05-09T04:32:05.271Z,100701.66
2023-05-09T04:33:08.089Z,100707.97
2023-05-09T04:34:13.627Z,100706.75
2023-05-09T04:35:19.011Z,100703.66
2023-05-09T04:36:25.449Z,100705.69
2023-05-09T04:37:28.404Z,100710.38
2023-05-09T04:38:32.982Z,100711.72
2023-05-09T04:39:35.947Z,100711.19
2023-05-09T04:40:48.965Z,100705.69
2023-05-09T04:41:53.322Z,100708.78
2023-05-09T04:42:57.568Z,100709.59
2023-05-09T04:44:04.008Z,100711.09
2023-05-09T04:45:07.896Z,100714.22
2023-05-09T04:46:12.352Z,100707.81
2023-05-09T04:47:15.437Z,100700.69
2023-05-09T04:48:19.351Z,100704.34
2023-05-09T04:49:23.613Z,100717.97
2023-05-09T04:50:27.486Z,100720.09
2023-05-09T04:51:30.453Z,100713.59
2023-05-09T04:52:34.285Z,100713.78
2023-05-09T04:53:37.524Z,100712.78
2023-05-09T04:54:41.919Z,100713.78
2023-05-09T04:55:44.816Z,100711.34
2023-05-09T04:56:50.620Z,100699.59
2023-05-09T04:57:54.086Z,100707.41
2023-05-09T04:59:00.206Z,100716.88
2023-05-09T05:00:03.182Z,100711.59
2023-05-09T05:01:07.818Z,100714.47
2023-05-09T05:02:11.317Z,100703.97
2023-05-09T05:03:15.657Z,100711.47
2023-05-09T05:04:18.944Z,100699.72
2023-05-09T05:05:25.377Z,100708.78
2023-05-09T05:06:29.701Z,100705.78
2023-05-09T05:07:33.876Z,100713.16
2023-05-09T05:08:36.932Z,100711.75
2023-05-09T05:09:40.806Z,100706.94
2023-05-09T05:10:43.748Z,100695.19
2023-05-09T05:11:59.583Z,100701.84
2023-05-09T05:13:06.852Z,100698.72
2023-05-09T05:14:11.414Z,100710.53
2023-05-09T05:15:16.019Z,100714.09
2023-05-09T05:16:21.432Z,100705.09
2023-05-09T05:17:25.995Z,100703.03
2023-05-09T05:18:28.926Z,100698.22
2023-05-09T05:19:33.095Z,100704.19
2023-05-09T05:20:40.403Z,100703.88
2023-05-09T05:21:44.696Z,100703.34
2023-05-09T05:22:47.486Z,100704.75
2023-05-09T05:23:51.530Z,100700.78
2023-05-09T05:24:54.278Z,100707.19
2023-05-09T05:25:58.256Z,100696.75
2023-05-09T05:27:01.279Z,100701.50
2023-05-09T05:28:05.434Z,100703.97
2023-05-09T05:29:08.157Z,100698.78
2023-05-09T05:30:15.915Z,100701.44
2023-05-09T05:31:19.437Z,100693.94
2023-05-09T05:32:23.480Z,100699.38
2023-05-09T05:33:26.452Z,100706.59
2023-05-09T05:34:30.666Z,100707.03
2023-05-09T05:35:33.765Z,100701.22
2023-05-09T05:36:39.449Z,100703.31
2023-05-09T05:37:42.586Z,100695.63
2023-05-09T05:38:46.971Z,100706.44
2023-05-09T05:39:52.269Z,100697.31
2023-05-09T05:40:56.770Z,100693.56
2023-05-09T05:42:01.008Z,100681.13
2023-05-09T05:43:05.852Z,100697.22
2023-05-09T05:44:10.076Z,100701.97
2023-05-09T05:45:15.392Z,100705.69
2023-05-09T05:46:23.050Z,100695.66
2023-05-09T05:47:27.485Z,100693.06
2023-05-09T05:48:30.921Z,100692.53
2023-05-09T05:49:35.200Z,100697.13
2023-05-09T05:50:38.067Z,100690.84
2023-05-09T05:51:43.815Z,100696.06
2023-05-09T05:52:47.495Z,100704.84
2023-05-09T05:53:53.199Z,100698.59
2023-05-09T05:54:56.986Z,100695.56
2023-05-09T05:56:01.781Z,100683.88
2023-05-09T05:57:05.715Z,100692.69
2023-05-09T05:58:10.093Z,100682.09
2023-05-09T05:59:13.653Z,100687.94
2023-05-09T06:00:17.893Z,100687.03
2023-05-09T06:01:25.679Z,100685.69
2023-05-09T06:02:28.892Z,100686.13
2023-05-09T06:03:32.887Z,100686.53
2023-05-09T06:04:40.132Z,100681.75
2023-05-09T06:05:44.053Z,100675.97
2023-05-09T06:06:50.687Z,100688.56
2023-05-09T06:07:53.710Z,100684.22
2023-05-09T06:08:57.762Z,100684.13
2023-05-09T06:10:00.537Z,100672.16
2023-05-09T06:11:06.074Z,100679.22
2023-05-09T06:12:10.377Z,100683.59
2023-05-09T06:13:13.601Z,100683.75
2023-05-09T06:14:21.490Z,100685.63
2023-05-09T06:15:24.621Z,100682.47
2023-05-09T06:16:28.648Z,100687.91
2023-05-09T06:17:31.609Z,100682.59
2023-05-09T06:18:38.137Z,100690.06
2023-05-09T06:19:42.217Z,100678.88
2023-05-09T06:20:44.814Z,100695.16
2023-05-09T06:21:50.281Z,100682.06
2023-05-09T06:22:53.135Z,100687.13
2023-05-09T06:24:09.890Z,100683.66
2023-05-09T06:25:15.633Z,100683.19
2023-05-09T06:26:19.883Z,100682.41
2023-05-09T06:27:23.090Z,100682.69
2023-05-09T06:28:27.579Z,100661.53
2023-05-09T06:29:31.045Z,100672.44
2023-05-09T06:30:35.094Z,100662.19
2023-05-09T06:31:39.422Z,100684.16
2023-05-09T06:32:43.809Z,100669.09
2023-05-09T06:33:47.930Z,100667.63
2023-05-09T06:34:51.216Z,100680.56
2023-05-09T06:35:55.113Z,100675.47
2023-05-09T06:37:00.552Z,100667.31
2023-05-09T06:38:03.970Z,100675.28
2023-05-09T06:39:08.061Z,100675.94
2023-05-09T06:40:12.590Z,100680.13
2023-05-09T06:41:16.781Z,100676.00
2023-05-09T06:42:19.497Z,100663.63
2023-05-09T06:43:23.481Z,100650.38
2023-05-09T06:44:27.042Z,100655.13
2023-05-09T06:45:31.612Z,100666.59
2023-05-09T06:46:34.533Z,100687.44
2023-05-09T06:47:39.087Z,100676.31
2023-05-09T06:48:41.901Z,100671.50
2023-05-09T06:49:45.985Z,100675.00
2023-05-09T06:50:49.707Z,100668.59
2023-05-09T06:51:53.202Z,100674.00
2023-05-09T06:52:58.988Z,100657.47
2023-05-09T06:54:03.276Z,100659.56
2023-05-09T06:55:07.557Z,100657.34
2023-05-09T06:56:11.667Z,100666.44
2023-05-09T06:57:14.658Z,100657.34
2023-05-09T06:58:18.767Z,100658.59
2023-05-09T06:59:21.617Z,100662.38
2023-05-09T07:00:25.951Z,100647.88
2023-05-09T07:01:30.051Z,100675.28
2023-05-09T07:02:33.095Z,100653.72
2023-05-09T07:03:37.260Z,100656.06
2023-05-09T07:04:41.168Z,100645.97
2023-05-09T07:05:43.994Z,100669.78
2023-05-09T07:06:48.189Z,100668.19
2023-05-09T07:07:51.396Z,100658.03
2023-05-09T07:08:57.037Z,100663.03
2023-05-09T07:10:10.663Z,100658.81
2023-05-09T07:11:16.827Z,100653.31
2023-05-09T07:12:19.756Z,100655.00
2023-05-09T07:13:24.196Z,100643.38
2023-05-09T07:14:27.161Z,100642.13
2023-05-09T07:15:41.484Z,100639.06
2023-05-09T07:16:47.106Z,100649.38
2023-05-09T07:17:50.117Z,100632.94
2023-05-09T07:18:53.985Z,100643.81
2023-05-09T07:19:56.895Z,100653.25
2023-05-09T07:21:00.753Z,100648.53
2023-05-09T07:22:03.590Z,100643.72
2023-05-09T07:23:07.856Z,100651.63
2023-05-09T07:24:12.255Z,100629.34
2023-05-09T07:25:16.451Z,100639.13
2023-05-09T07:26:19.861Z,100644.53
2023-05-09T07:27:23.656Z,100640.69
2023-05-09T07:28:27.471Z,100655.44
2023-05-09T07:29:31.510Z,100650.75
2023-05-09T07:30:35.494Z,100655.75
2023-05-09T07:31:38.265Z,100657.53
2023-05-09T07:32:42.201Z,100661.91
2023-05-09T07:33:44.726Z,100651.47
2023-05-09T07:34:48.548Z,100648.72
2023-05-09T07:35:53.146Z,100639.38
2023-05-09T07:36:58.853Z,100635.25
2023-05-09T07:38:01.767Z,100630.25
2023-05-09T07:39:06.268Z,100642.19
2023-05-09T07:40:12.838Z,100644.53
2023-05-09T07:41:15.726Z,100635.97
2023-05-09T07:42:19.772Z,100641.31
2023-05-09T07:43:22.118Z,100639.09
2023-05-09T07:44:25.732Z,100629.25
2023-05-09T07:45:29.870Z,100639.09
2023-05-09T07:46:32.772Z,100636.63
2023-05-09T07:47:36.886Z,100635.97
2023-05-09T07:48:40.251Z,100635.34
2023-05-09T07:49:46.866Z,100635.50
2023-05-09T07:50:51.145Z,100634.50
2023-05-09T07:51:54.654Z,100621.75
2023-05-09T07:52:58.592Z,100628.94
2023-05-09T07:54:02.487Z,100624.03
2023-05-09T07:55:08.057Z,100618.28
2023-05-09T07:56:12.719Z,100614.44
2023-05-09T07:57:17.040Z,100619.59
2023-05-09T07:58:20.178Z,100610.69
2023-05-09T07:59:24.166Z,100617.41
2023-05-09T08:00:28.336Z,100609.50
2023-05-09T08:01:32.598Z,100598.66
2023-05-09T08:02:35.457Z,100612.25
2023-05-09T08:03:39.578Z,100619.31
2023-05-09T08:04:44.306Z,100627.75
2023-05-09T08:05:47.475Z,100610.59
2023-05-09T08:06:51.524Z,100609.31
2023-05-09T08:07:55.627Z,100602.34
2023-05-09T08:08:58.310Z,100604.34
2023-05-09T08:10:02.768Z,100605.19
2023-05-09T08:11:06.541Z,100608.00
2023-05-09T08:12:11.545Z,100615.41
2023-05-09T08:13:14.469Z,100609.38
2023-05-09T08:14:18.704Z,100612.00
2023-05-09T08:15:21.775Z,100603.69
2023-05-09T08:16:26.237Z,100605.38
2023-05-09T08:17:29.329Z,100605.16
2023-05-09T08:18:33.862Z,100617.34
2023-05-09T08:19:36.590Z,100602.34
2023-05-09T08:20:40.759Z,100597.31
2023-05-09T08:21:43.443Z,100605.88
2023-05-09T08:22:47.248Z,100592.00
2023-05-09T08:23:52.681Z,100590.59
2023-05-09T08:24:55.335Z,100583.78
2023-05-09T08:25:59.368Z,100584.69
2023-05-09T08:27:04.035Z,100581.44
2023-05-09T08:28:09.445Z,100591.47
2023-05-09T08:29:13.161Z,100580.59
2023-05-09T08:30:17.669Z,100589.50
2023-05-09T08:31:21.614Z,100580.31
2023-05-09T08:32:25.773Z,100581.56
2023-05-09T08:33:29.941Z,100579.22
2023-05-09T08:34:34.897Z,100581.56
2023-05-09T08:35:37.568Z,100588.00
2023-05-09T08:36:41.792Z,100582.09
2023-05-09T08:37:44.962Z,100587.19
2023-05-09T08:38:49.752Z,100581.22
2023-05-09T08:39:52.977Z,100575.22
2023-05-09T08:41:02.280Z,100580.03
2023-05-09T08:42:05.307Z,100580.19
2023-05-09T08:43:12.223Z,100591.19
2023-05-09T08:44:19.091Z,100583.41
2023-05-09T08:45:28.737Z,100583.78
2023-05-09T08:46:38.140Z,100577.44
2023-05-09T08:47:43.245Z,100568.34
2023-05-09T08:48:47.343Z,100564.72
2023-05-09T08:49:52.671Z,100573.56
2023-05-09T08:50:56.485Z,100570.28
2023-05-09T08:52:01.547Z,100566.78
2023-05-09T08:53:05.867Z,100561.03
2023-05-09T08:54:10.162Z,100558.13
2023-05-09T08:55:14.287Z,100554.59
2023-05-09T08:56:17.963Z,100559.91
2023-05-09T08:57:21.868Z,100564.94
2023-05-09T08:58:27.299Z,100552.22
2023-05-09T08:59:35.649Z,100558.44
2023-05-09T09:00:40.291Z,100561.44
2023-05-09T09:01:45.311Z,100550.56
2023-05-09T09:02:49.159Z,100551.38
2023-05-09T09:03:53.578Z,100551.50
2023-05-09T09:04:56.827Z,100546.63
2023-05-09T09:06:01.451Z,100540.75
2023-05-09T09:07:06.015Z,100537.50
2023-05-09T09:08:11.216Z,100537.63
2023-05-09T09:09:17.032Z,100525.91
2023-05-09T09:10:22.042Z,100542.25
2023-05-09T09:11:28.798Z,100536.56
2023-05-09T09:12:34.236Z,100529.72
2023-05-09T09:13:40.997Z,100532.66
2023-05-09T09:14:49.838Z,100533.81
2023-05-09T09:15:54.820Z,100536.59
2023-05-09T09:17:00.083Z,100531.75
2023-05-09T09:18:10.265Z,100532.78
2023-05-09T09:19:18.262Z,100524.06
2023-05-09T09:20:24.378Z,100515.41
2023-05-09T09:21:29.036Z,100519.88
2023-05-09T09:22:35.180Z,100520.00
2023-05-09T09:23:43.346Z,100516.88
2023-05-09T09:24:47.741Z,100521.34
2023-05-09T09:25:59.476Z,100521.50
2023-05-09T09:27:07.977Z,100512.94
2023-05-09T09:28:12.034Z,100509.41
2023-05-09T09:29:18.711Z,100513.00
2023-05-09T09:30:25.915Z,100518.41
2023-05-09T09:31:35.016Z,100515.25
2023-05-09T09:32:40.559Z,100499.97
2023-05-09T09:33:45.826Z,100498.47
2023-05-09T09:34:51.898Z,100517.56
2023-05-09T09:35:56.525Z,100505.66
2023-05-09T09:37:00.775Z,100511.88
2023-05-09T09:38:07.179Z,100510.66
2023-05-09T09:39:11.130Z,100502.53
2023-05-09T09:40:15.850Z,100501.09
2023-05-09T09:41:20.236Z,100500.56
2023-05-09T09:42:25.914Z,100484.06
2023-05-09T09:43:29.758Z,100512.63
2023-05-09T09:44:35.796Z,100510.22
2023-05-09T09:45:43.734Z,100511.41
2023-05-09T09:46:51.218Z,100509.09
2023-05-09T09:47:55.247Z,100507.31
2023-05-09T09:48:58.497Z,100505.94
2023-05-09T09:50:12.129Z,100503.06
2023-05-09T09:51:15.256Z,100501.78
2023-05-09T09:52:27.228Z,100499.53
2023-05-09T09:53:31.522Z,100504.78
2023-05-09T09:54:35.672Z,100499.72
2023-05-09T09:55:50.526Z,100499.16
2023-05-09T09:56:55.350Z,100496.06
2023-05-09T09:57:59.738Z,100493.59
2023-05-09T09:59:14.264Z,100500.34
2023-05-09T10:00:21.729Z,100502.81
2023-05-09T10:01:25.846Z,100504.03
2023-05-09T10:02:29.795Z,100497.81
2023-05-09T10:03:38.852Z,100496.25
2023-05-09T10:04:43.584Z,100497.03
2023-05-09T10:05:47.978Z,100495.44
2023-05-09T10:06:54.964Z,100488.41
2023-05-09T10:08:00.256Z,100498.78
2023-05-09T10:09:03.086Z,100488.16
2023-05-09T10:10:08.430Z,100490.88
2023-05-09T10:11:12.821Z,100492.69
2023-05-09T10:12:20.178Z,100486.56
2023-05-09T10:13:24.408Z,100467.44
2023-05-09T10:14:27.269Z,100481.69
2023-05-09T10:15:45.109Z,100482.88
2023-05-09T10:16:58.352Z,100489.78
2023-05-09T10:18:04.620Z,100486.94
2023-05-09T10:19:08.690Z,100496.53
2023-05-09T10:20:15.391Z,100490.41
2023-05-09T10:21:19.554Z,100490.78
2023-05-09T10:22:25.071Z,100490.78
2023-05-09T10:23:31.058Z,100487.47
2023-05-09T10:24:38.005Z,100496.56
2023-05-09T10:25:48.522Z,100484.78
2023-05-09T10:26:55.220Z,100487.59
2023-05-09T10:28:02.920Z,100487.66
2023-05-09T10:29:11.117Z,100483.50
2023-05-09T10:30:19.523Z,100489.03
2023-05-09T10:31:27.535Z,100477.88
2023-05-09T10:32:37.640Z,100489.28
2023-05-09T10:33:48.132Z,100487.09
2023-05-09T10:34:56.548Z,100473.34
2023-05-09T10:36:02.456Z,100476.56
2023-05-09T10:37:05.774Z,100482.81
2023-05-09T10:38:12.614Z,100462.59
2023-05-09T10:39:17.827Z,100465.28
2023-05-09T10:40:23.161Z,100477.28
2023-05-09T10:41:27.086Z,100472.69
2023-05-09T10:42:31.713Z,100471.56
2023-05-09T10:43:36.887Z,100464.44
2023-05-09T10:44:41.509Z,100470.44
2023-05-09T10:45:44.848Z,100471.13
2023-05-09T10:46:50.843Z,100460.50
2023-05-09T10:47:57.187Z,100456.69
2023-05-09T10:49:01.510Z,100453.72
2023-05-09T10:50:06.602Z,100458.50
2023-05-09T10:51:10.907Z,100451.25
2023-05-09T10:52:17.079Z,100455.09
2023-05-09T10:53:24.470Z,100456.50
2023-05-09T10:54:31.119Z,100456.09
2023-05-09T10:55:38.344Z,100448.63
2023-05-09T10:56:42.582Z,100459.47
2023-05-09T10:57:53.870Z,100443.94
2023-05-09T10:58:57.955Z,100448.69
2023-05-09T11:00:01.000Z,100443.72
2023-05-09T11:01:11.166Z,100426.63
2023-05-09T11:02:20.966Z,100425.03
2023-05-09T11:03:26.914Z,100423.66
2023-05-09T11:04:30.949Z,100441.47
2023-05-09T11:05:40.914Z,100427.72
2023-05-09T11:06:49.705Z,100436.34
2023-05-09T11:08:20.358Z,100440.94
2023-05-09T11:09:30.383Z,100443.59
2023-05-09T11:10:43.622Z,100417.66
2023-05-09T11:11:52.610Z,100432.28
2023-05-09T11:12:58.564Z,100440.78
2023-05-09T11:14:03.058Z,100440.81
2023-05-09T11:15:09.284Z,100422.47
2023-05-09T11:16:12.993Z,100435.44
2023-05-09T11:17:52.504Z,100435.81
2023-05-09T11:18:56.497Z,100433.59
2023-05-09T11:20:07.182Z,100433.09
2023-05-09T11:21:11.254Z,100424.00
2023-05-09T11:22:16.159Z,100413.81
2023-05-09T11:23:21.968Z,100422.28
2023-05-09T11:24:28.622Z,100425.34
2023-05-09T11:25:32.584Z,100424.00
2023-05-09T11:26:36.024Z,100408.38
2023-05-09T11:27:44.091Z,100420.06
2023-05-09T11:28:57.053Z,100416.56
2023-05-09T11:30:05.165Z,100427.41
2023-05-09T11:31:13.807Z,100418.03
2023-05-09T11:32:19.735Z,100410.41
2023-05-09T11:33:24.995Z,100417.59
2023-05-09T11:34:30.976Z,100415.31
2023-05-09T11:35:37.640Z,100417.50
2023-05-09T11:36:49.285Z,100418.59
2023-05-09T11:37:55.436Z,100409.53
2023-05-09T11:39:07.900Z,100420.25
2023-05-09T11:40:13.963Z,100409.31
2023-05-09T11:41:18.201Z,100418.50
2023-05-09T11:42:24.050Z,100412.78
2023-05-09T11:43:28.057Z,100411.44
2023-05-09T11:44:33.634Z,100407.34
2023-05-09T11:45:37.926Z,100402.44
2023-05-09T11:46:40.880Z,100411.50
2023-05-09T11:47:47.643Z,100418.78
2023-05-09T11:48:51.655Z,100401.78
2023-05-09T11:49:55.622Z,100402.00
2023-05-09T11:51:00.181Z,100405.72
2023-05-09T11:52:03.415Z,100407.66
2023-05-09T11:53:08.516Z,100407.94
2023-05-09T11:54:15.247Z,100411.56
2023-05-09T11:55:22.930Z,100401.13
2023-05-09T11:56:26.315Z,100390.81
2023-05-09T11:57:30.336Z,100395.38
2023-05-09T11:58:34.176Z,100396.47
2023-05-09T11:59:39.931Z,100391.25
2023-05-09T12:00:46.405Z,100397.47
2023-05-09T12:01:49.543Z,100390.28
2023-05-09T12:02:55.310Z,100387.81
2023-05-09T12:03:59.093Z,100385.13
2023-05-09T12:05:09.429Z,100384.41
2023-05-09T12:06:18.577Z,100394.00
2023-05-09T12:07:23.400Z,100388.47
2023-05-09T12:08:28.707Z,100390.28
2023-05-09T12:09:33.147Z,100377.88
2023-05-09T12:10:39.936Z,100381.28
2023-05-09T12:11:50.287Z,100387.13
2023-05-09T12:12:57.432Z,100378.41
2023-05-09T12:14:01.872Z,100372.56
2023-05-09T12:15:07.893Z,100381.50
2023-05-09T12:16:12.065Z,100371.22
2023-05-09T12:17:16.452Z,100373.22
2023-05-09T12:18:22.535Z,100375.19
2023-05-09T12:19:25.867Z,100378.84
2023-05-09T12:20:29.958Z,100372.78
2023-05-09T12:21:33.861Z,100370.25
2023-05-09T12:22:38.932Z,100375.63
2023-05-09T12:23:42.265Z,100372.19
2023-05-09T12:24:46.258Z,100375.00
2023-05-09T12:25:49.561Z,100375.97